Arboga, California
Current Conditions -  °F | °C
As of 11:53 PM on Saturday 25 Oct 2014 (Local Time) from KMYV Reporting Station
Few Clouds Few Clouds  
Wind Chill: 58°   Ceiling: Unl
Heat Index: 58°   Visibility: 10mi
Dew Point: 53°   Wind: 8mph
Humidity: 84%   Direction: 170°S
Pressure: 30.11"   Gusts: NA
Location:  39.0904°N, 121.552°W
Report Text: KMYV 260653Z AUTO 17007KT 10SM FEW060 FEW110 14/12 A3011 RMK AO2 SLP200 T01440117 $
Loading
Personal Weather Stations






























Interactive Weather Map
Tropical Storm Tracking
New forecast layout! Learn more

10-Day Weather Forecast

Advertisements
Track Severe Weather on mobile